createdAt,value
2018-07-04T00:00:03.783Z,18.72
2018-07-04T00:01:03.768Z,18.76
2018-07-04T00:02:03.753Z,18.70
2018-07-04T00:03:03.748Z,18.65
2018-07-04T00:04:03.735Z,18.59
2018-07-04T00:05:03.733Z,18.62
2018-07-04T00:06:03.710Z,18.58
2018-07-04T00:07:03.699Z,18.58
2018-07-04T00:08:03.680Z,18.54
2018-07-04T00:09:03.670Z,18.52
2018-07-04T00:10:03.651Z,18.62
2018-07-04T00:11:03.651Z,18.52
2018-07-04T00:12:03.628Z,18.59
2018-07-04T00:13:03.628Z,18.50
2018-07-04T00:14:03.604Z,18.54
2018-07-04T00:15:03.596Z,18.54
2018-07-04T00:16:03.580Z,18.49
2018-07-04T00:17:03.563Z,18.43
2018-07-04T00:18:03.564Z,18.52
2018-07-04T00:19:03.541Z,18.46
2018-07-04T00:20:03.547Z,18.46
2018-07-04T00:21:03.517Z,18.43
2018-07-04T00:22:03.498Z,18.36
2018-07-04T00:23:03.492Z,18.34
2018-07-04T00:24:03.481Z,18.27
2018-07-04T00:25:03.466Z,18.19
2018-07-04T00:26:03.454Z,18.24
2018-07-04T00:27:03.435Z,18.22
2018-07-04T00:28:03.422Z,18.13
2018-07-04T00:29:03.422Z,18.19
2018-07-04T00:30:03.402Z,18.21
2018-07-04T00:31:03.382Z,18.18
2018-07-04T00:32:03.376Z,18.15
2018-07-04T00:33:03.363Z,18.17
2018-07-04T00:34:03.348Z,18.12
2018-07-04T00:35:03.331Z,18.13
2018-07-04T00:36:03.315Z,18.15
2018-07-04T00:37:03.306Z,18.15
2018-07-04T00:38:03.298Z,18.18
2018-07-04T00:39:03.282Z,18.22
2018-07-04T00:40:03.265Z,18.28
2018-07-04T00:41:03.260Z,18.13
2018-07-04T00:42:03.256Z,18.24
2018-07-04T00:43:03.226Z,18.12
2018-07-04T00:44:03.213Z,18.13
2018-07-04T00:45:03.200Z,18.12
2018-07-04T00:46:03.195Z,18.13
2018-07-04T00:47:03.175Z,18.10
2018-07-04T00:48:03.161Z,18.17
2018-07-04T00:49:03.144Z,18.12
2018-07-04T00:50:03.137Z,18.03
2018-07-04T00:51:03.130Z,17.99
2018-07-04T00:52:03.114Z,18.06
2018-07-04T00:53:03.092Z,17.94
2018-07-04T00:54:03.079Z,18.03
2018-07-04T00:55:03.079Z,18.02
2018-07-04T00:56:03.066Z,18.12
2018-07-04T00:57:03.046Z,17.92
2018-07-04T00:58:03.037Z,17.92
2018-07-04T00:59:03.021Z,17.92
2018-07-04T01:00:03.014Z,17.78
2018-07-04T01:01:02.990Z,17.91
2018-07-04T01:02:02.981Z,17.89
2018-07-04T01:03:02.963Z,17.84
2018-07-04T01:04:02.953Z,17.92
2018-07-04T01:05:02.945Z,17.84
2018-07-04T01:06:02.925Z,17.85
2018-07-04T01:07:02.914Z,17.84
2018-07-04T01:08:02.904Z,17.88
2018-07-04T01:09:02.888Z,17.74
2018-07-04T01:10:02.868Z,17.69
2018-07-04T01:11:02.860Z,17.70
2018-07-04T01:12:02.846Z,17.70
2018-07-04T01:13:02.832Z,17.66
2018-07-04T01:14:02.825Z,17.64
2018-07-04T01:15:02.804Z,17.57
2018-07-04T01:16:02.797Z,17.62
2018-07-04T01:17:02.784Z,17.62
2018-07-04T01:18:02.777Z,17.55
2018-07-04T01:19:02.751Z,17.55
2018-07-04T01:20:02.732Z,17.53
2018-07-04T01:21:02.734Z,17.53
2018-07-04T01:22:02.710Z,17.33
2018-07-04T01:23:02.697Z,17.35
2018-07-04T01:24:02.688Z,17.44
2018-07-04T01:25:02.674Z,17.35
2018-07-04T01:26:02.660Z,17.38
2018-07-04T01:27:02.649Z,17.33
2018-07-04T01:28:02.630Z,17.25
2018-07-04T01:29:02.622Z,17.32
2018-07-04T01:30:02.608Z,17.28
2018-07-04T01:31:02.614Z,17.30
2018-07-04T01:32:02.578Z,17.25
2018-07-04T01:33:02.567Z,17.25
2018-07-04T01:34:02.550Z,17.23
2018-07-04T01:35:02.539Z,17.25
2018-07-04T01:36:02.525Z,17.26
2018-07-04T01:37:02.512Z,17.25
2018-07-04T01:38:02.502Z,17.30
2018-07-04T01:39:02.488Z,17.15
2018-07-04T01:40:02.469Z,17.20
2018-07-04T01:41:02.459Z,17.25
2018-07-04T01:42:02.442Z,17.25
2018-07-04T01:43:02.429Z,17.15
2018-07-04T01:44:02.423Z,17.22
2018-07-04T01:45:02.405Z,17.25
2018-07-04T01:46:02.395Z,17.26
2018-07-04T01:47:02.390Z,17.20
2018-07-04T01:48:02.363Z,17.15
2018-07-04T01:49:02.349Z,17.22
2018-07-04T01:50:02.332Z,17.23
2018-07-04T01:51:02.324Z,17.22
2018-07-04T01:52:02.306Z,17.23
2018-07-04T01:53:02.292Z,17.23
2018-07-04T01:54:02.283Z,17.22
2018-07-04T01:55:02.262Z,17.23
2018-07-04T01:56:02.267Z,17.18
2018-07-04T01:57:02.242Z,17.18
2018-07-04T01:58:02.236Z,17.18
2018-07-04T01:59:02.219Z,17.17
2018-07-04T02:00:02.201Z,17.14
2018-07-04T02:01:02.186Z,17.14
2018-07-04T02:02:02.174Z,17.06
2018-07-04T02:03:02.167Z,16.99
2018-07-04T02:04:02.149Z,17.06
2018-07-04T02:05:02.135Z,17.10
2018-07-04T02:06:02.118Z,17.08
2018-07-04T02:07:02.107Z,17.10
2018-07-04T02:08:02.093Z,16.95
2018-07-04T02:09:02.078Z,16.86
2018-07-04T02:10:02.073Z,16.86
2018-07-04T02:11:02.047Z,16.78
2018-07-04T02:12:02.039Z,16.85
2018-07-04T02:13:02.021Z,16.68
2018-07-04T02:14:02.007Z,16.77
2018-07-04T02:15:01.990Z,16.73
2018-07-04T02:16:01.986Z,16.74
2018-07-04T02:17:01.995Z,16.65
2018-07-04T02:18:01.952Z,16.65
2018-07-04T02:19:01.943Z,16.62
2018-07-04T02:20:01.931Z,16.73
2018-07-04T02:21:01.917Z,16.71
2018-07-04T02:22:01.898Z,16.71
2018-07-04T02:23:01.897Z,16.63
2018-07-04T02:24:01.870Z,16.65
2018-07-04T02:25:01.862Z,16.62
2018-07-04T02:26:01.852Z,16.56
2018-07-04T02:27:01.829Z,16.53
2018-07-04T02:28:01.813Z,16.53
2018-07-04T02:29:01.801Z,16.53
2018-07-04T02:30:01.790Z,16.56
2018-07-04T02:31:01.781Z,16.53
2018-07-04T02:32:01.763Z,16.50
2018-07-04T02:33:01.746Z,16.55
2018-07-04T02:34:01.737Z,16.44
2018-07-04T02:35:01.719Z,16.52
2018-07-04T02:36:01.709Z,16.56
2018-07-04T02:37:01.693Z,16.49
2018-07-04T02:38:01.696Z,16.52
2018-07-04T02:39:01.666Z,16.49
2018-07-04T02:40:01.645Z,16.49
2018-07-04T02:41:01.648Z,16.52
2018-07-04T02:42:01.635Z,16.48
2018-07-04T02:43:01.609Z,16.48
2018-07-04T02:44:01.595Z,16.48
2018-07-04T02:45:01.713Z,16.45
2018-07-04T02:46:01.573Z,16.44
2018-07-04T02:47:01.550Z,16.41
2018-07-04T02:48:01.537Z,16.30
2018-07-04T02:49:01.529Z,16.31
2018-07-04T02:50:01.514Z,16.25
2018-07-04T02:51:01.504Z,16.35
2018-07-04T02:52:01.501Z,16.18
2018-07-04T02:53:01.467Z,16.25
2018-07-04T02:54:01.458Z,16.18
2018-07-04T02:55:01.444Z,16.16
2018-07-04T02:56:01.432Z,16.12
2018-07-04T02:57:01.415Z,16.07
2018-07-04T02:58:01.403Z,16.09
2018-07-04T02:59:01.385Z,16.25
2018-07-04T03:00:01.381Z,16.25
2018-07-04T03:01:01.362Z,16.16
2018-07-04T03:02:01.341Z,16.18
2018-07-04T03:03:01.333Z,16.26
2018-07-04T03:04:01.319Z,16.30
2018-07-04T03:05:01.302Z,16.30
2018-07-04T03:06:01.294Z,16.16
2018-07-04T03:07:01.281Z,16.22
2018-07-04T03:08:01.259Z,16.11
2018-07-04T03:09:01.239Z,16.15
2018-07-04T03:10:01.233Z,16.04
2018-07-04T03:11:01.220Z,16.12
2018-07-04T03:12:01.203Z,16.07
2018-07-04T03:13:01.186Z,15.99
2018-07-04T03:14:01.171Z,16.00
2018-07-04T03:15:01.158Z,15.99
2018-07-04T03:16:01.151Z,15.97
2018-07-04T03:17:01.153Z,15.96
2018-07-04T03:18:01.116Z,15.96
2018-07-04T03:19:01.106Z,15.94
2018-07-04T03:20:01.091Z,15.96
2018-07-04T03:21:01.078Z,16.00
2018-07-04T03:22:01.065Z,16.01
2018-07-04T03:23:01.046Z,15.96
2018-07-04T03:24:01.034Z,15.96
2018-07-04T03:25:01.037Z,15.94
2018-07-04T03:26:01.005Z,15.97
2018-07-04T03:27:00.992Z,15.97
2018-07-04T03:28:00.979Z,15.97
2018-07-04T03:29:00.965Z,15.99
2018-07-04T03:30:00.950Z,15.96
2018-07-04T03:31:00.939Z,15.99
2018-07-04T03:32:00.929Z,16.15
2018-07-04T03:33:00.952Z,16.15
2018-07-04T03:34:00.925Z,16.12
2018-07-04T03:35:00.938Z,16.22
2018-07-04T03:36:00.886Z,16.33
2018-07-04T03:37:00.865Z,16.31
2018-07-04T03:38:00.831Z,16.34
2018-07-04T03:39:00.882Z,16.40
2018-07-04T03:40:00.812Z,16.31
2018-07-04T03:41:00.841Z,16.27
2018-07-04T03:42:00.776Z,16.14
2018-07-04T03:43:00.760Z,16.09
2018-07-04T03:44:00.748Z,16.25
2018-07-04T03:45:00.737Z,16.18
2018-07-04T03:46:00.726Z,16.22
2018-07-04T03:47:00.703Z,16.09
2018-07-04T03:48:00.690Z,16.07
2018-07-04T03:49:00.686Z,16.14
2018-07-04T03:50:00.663Z,16.14
2018-07-04T03:51:00.653Z,16.09
2018-07-04T03:52:00.640Z,16.11
2018-07-04T03:53:00.625Z,16.03
2018-07-04T03:54:00.612Z,16.01
2018-07-04T03:55:00.619Z,16.12
2018-07-04T03:56:00.591Z,16.09
2018-07-04T03:57:00.563Z,16.09
2018-07-04T03:58:00.569Z,16.06
2018-07-04T03:59:00.549Z,16.06
2018-07-04T04:00:00.528Z,16.01
2018-07-04T04:01:00.509Z,16.15
2018-07-04T04:02:00.517Z,16.11
2018-07-04T04:03:00.488Z,16.14
2018-07-04T04:04:00.486Z,16.22
2018-07-04T04:05:00.464Z,16.25
2018-07-04T04:06:00.439Z,16.30
2018-07-04T04:07:00.431Z,16.30
2018-07-04T04:08:00.416Z,16.40
2018-07-04T04:09:00.414Z,16.40
2018-07-04T04:10:00.392Z,16.52
2018-07-04T04:11:00.377Z,16.50
2018-07-04T04:12:00.349Z,16.60
2018-07-04T04:13:00.341Z,16.56
2018-07-04T04:14:00.331Z,16.52
2018-07-04T04:15:00.315Z,16.34
2018-07-04T04:16:00.303Z,16.31
2018-07-04T04:17:00.293Z,16.26
2018-07-04T04:18:00.270Z,16.33
2018-07-04T04:19:00.261Z,16.37
2018-07-04T04:20:00.242Z,16.38
2018-07-04T04:21:00.229Z,16.34
2018-07-04T04:22:00.217Z,16.38
2018-07-04T04:23:00.205Z,16.34
2018-07-04T04:24:00.199Z,16.40
2018-07-04T04:25:00.179Z,16.42
2018-07-04T04:26:00.161Z,16.53
2018-07-04T04:27:00.189Z,16.60
2018-07-04T04:28:00.133Z,16.58
2018-07-04T04:29:00.282Z,16.80
2018-07-04T04:30:00.117Z,16.73
2018-07-04T04:31:00.096Z,16.81
2018-07-04T04:32:00.080Z,16.75
2018-07-04T04:33:00.111Z,16.71
2018-07-04T04:34:00.048Z,16.58
2018-07-04T04:35:00.035Z,16.56
2018-07-04T04:36:00.026Z,16.55
2018-07-04T04:37:00.011Z,16.62
2018-07-04T04:37:59.996Z,16.55
2018-07-04T04:38:59.979Z,16.53
2018-07-04T04:39:59.967Z,16.52
2018-07-04T04:40:59.949Z,16.65
2018-07-04T04:41:59.935Z,16.60
2018-07-04T04:42:59.928Z,16.74
2018-07-04T04:43:59.909Z,16.73
2018-07-04T04:44:59.907Z,16.70
2018-07-04T04:45:59.889Z,16.63
2018-07-04T04:46:59.866Z,16.63
2018-07-04T04:47:59.870Z,16.63
2018-07-04T04:48:59.884Z,16.65
2018-07-04T04:49:59.853Z,16.75
2018-07-04T04:50:59.836Z,16.74
2018-07-04T04:51:59.821Z,16.74
2018-07-04T04:52:59.799Z,16.78
2018-07-04T04:53:59.774Z,16.86
2018-07-04T04:54:59.774Z,16.75
2018-07-04T04:55:59.762Z,16.85
2018-07-04T04:56:59.745Z,16.83
2018-07-04T04:57:59.744Z,16.93
2018-07-04T04:58:59.765Z,16.95
2018-07-04T04:59:59.770Z,17.03
2018-07-04T05:00:59.712Z,16.98
2018-07-04T05:01:59.684Z,17.04
2018-07-04T05:02:59.664Z,17.06
2018-07-04T05:03:59.671Z,17.15
2018-07-04T05:04:59.649Z,17.08
2018-07-04T05:05:59.636Z,17.13
2018-07-04T05:06:59.617Z,17.03
2018-07-04T05:07:59.613Z,17.08
2018-07-04T05:08:59.576Z,16.96
2018-07-04T05:09:59.570Z,16.92
2018-07-04T05:10:59.558Z,17.00
2018-07-04T05:11:59.558Z,17.07
2018-07-04T05:12:59.526Z,17.11
2018-07-04T05:13:59.520Z,17.10
2018-07-04T05:14:59.520Z,17.08
2018-07-04T05:15:59.491Z,17.10
2018-07-04T05:16:59.488Z,17.11
2018-07-04T05:17:59.464Z,17.07
2018-07-04T05:18:59.474Z,17.33
2018-07-04T05:19:59.460Z,17.33
2018-07-04T05:20:59.440Z,17.43
2018-07-04T05:21:59.459Z,17.43
2018-07-04T05:22:59.431Z,17.36
2018-07-04T05:23:59.379Z,17.25
2018-07-04T05:24:59.367Z,17.30
2018-07-04T05:25:59.358Z,17.20
2018-07-04T05:26:59.343Z,17.18
2018-07-04T05:27:59.345Z,17.23
2018-07-04T05:28:59.358Z,17.30
2018-07-04T05:29:59.323Z,17.51
2018-07-04T05:30:59.296Z,17.67
2018-07-04T05:31:59.272Z,17.78
2018-07-04T05:32:59.266Z,17.85
2018-07-04T05:33:59.246Z,18.00
2018-07-04T05:34:59.243Z,18.00
2018-07-04T05:35:59.216Z,17.84
2018-07-04T05:36:59.212Z,17.87
2018-07-04T05:37:59.222Z,17.95
2018-07-04T05:38:59.211Z,18.03
2018-07-04T05:39:59.162Z,18.13
2018-07-04T05:41:59.236Z,18.39
2018-07-04T05:42:59.118Z,18.42
2018-07-04T05:43:59.129Z,18.47
2018-07-04T05:44:59.117Z,18.58
2018-07-04T05:45:59.150Z,18.67
2018-07-04T05:46:59.111Z,18.80
2018-07-04T05:47:59.078Z,18.97
2018-07-04T05:48:59.052Z,19.02
2018-07-04T05:49:59.061Z,18.90
2018-07-04T05:50:59.028Z,18.82
2018-07-04T05:51:59.021Z,18.92
2018-07-04T05:52:58.994Z,19.11
2018-07-04T05:53:58.993Z,19.23
2018-07-04T05:54:58.992Z,19.10
2018-07-04T05:55:58.993Z,19.10
2018-07-04T05:56:58.952Z,19.10
2018-07-04T05:57:58.930Z,18.98
2018-07-04T05:58:58.943Z,19.05
2018-07-04T05:59:58.935Z,19.13
2018-07-04T06:00:58.924Z,19.06
2018-07-04T06:01:58.898Z,19.11
2018-07-04T06:02:58.886Z,19.31
2018-07-04T06:03:58.870Z,19.36
2018-07-04T06:04:58.878Z,19.31
2018-07-04T06:05:58.874Z,19.38
2018-07-04T06:06:58.865Z,19.33
2018-07-04T06:07:58.835Z,19.46
2018-07-04T06:08:58.833Z,19.54
2018-07-04T06:09:58.822Z,19.39
2018-07-04T06:10:58.794Z,19.57
2018-07-04T06:11:58.816Z,19.47
2018-07-04T06:12:58.823Z,19.40
2018-07-04T06:13:58.747Z,19.29
2018-07-04T06:14:58.769Z,19.48
2018-07-04T06:15:58.758Z,19.79
2018-07-04T06:16:58.939Z,20.03
2018-07-04T06:17:58.843Z,20.38
2018-07-04T06:18:58.818Z,20.39
2018-07-04T06:19:58.678Z,20.65
2018-07-04T06:20:58.686Z,20.93
2018-07-04T06:21:58.662Z,21.17
2018-07-04T06:22:58.638Z,21.27
2018-07-04T06:23:58.616Z,21.27
2018-07-04T06:24:58.615Z,21.45
2018-07-04T06:25:58.615Z,21.44
2018-07-04T06:26:58.611Z,21.06
2018-07-04T06:27:58.580Z,20.96
2018-07-04T06:28:58.566Z,21.17
2018-07-04T06:29:58.564Z,21.20
2018-07-04T06:30:58.552Z,21.14
2018-07-04T06:31:58.544Z,21.17
2018-07-04T06:32:58.536Z,21.19
2018-07-04T06:33:58.528Z,21.32
2018-07-04T06:34:58.507Z,21.26
2018-07-04T06:35:58.530Z,21.16
2018-07-04T06:36:58.520Z,21.06
2018-07-04T06:37:58.499Z,21.20
2018-07-04T06:38:58.488Z,21.39
2018-07-04T06:39:58.461Z,21.57
2018-07-04T06:40:58.434Z,21.16
2018-07-04T06:41:58.483Z,20.80
2018-07-04T06:42:58.424Z,20.47
2018-07-04T06:43:58.427Z,20.49
2018-07-04T06:44:58.405Z,20.65
2018-07-04T06:45:58.469Z,20.77
2018-07-04T06:46:58.410Z,20.65
2018-07-04T06:47:58.365Z,20.46
2018-07-04T06:48:58.408Z,20.56
2018-07-04T06:49:58.348Z,20.58
2018-07-04T06:50:58.366Z,20.79
2018-07-04T06:51:58.332Z,20.77
2018-07-04T06:52:58.322Z,20.72
2018-07-04T06:53:58.318Z,20.77
2018-07-04T06:54:58.340Z,21.01
2018-07-04T06:55:58.298Z,21.35
2018-07-04T06:56:58.315Z,21.56
2018-07-04T06:57:58.297Z,21.69
2018-07-04T06:58:58.250Z,21.48
2018-07-04T06:59:58.258Z,21.45
2018-07-04T07:00:58.250Z,21.50
2018-07-04T07:01:58.286Z,21.51
2018-07-04T07:02:58.221Z,21.59
2018-07-04T07:03:58.229Z,21.56
2018-07-04T07:04:58.251Z,21.72
2018-07-04T07:05:58.223Z,21.75
2018-07-04T07:06:58.212Z,21.85
2018-07-04T07:07:58.191Z,21.95
2018-07-04T07:08:58.179Z,21.78
2018-07-04T07:09:58.150Z,21.67
2018-07-04T07:10:58.138Z,21.57
2018-07-04T07:11:58.120Z,21.46
2018-07-04T07:12:58.131Z,21.45
2018-07-04T07:13:58.137Z,21.60
2018-07-04T07:14:58.110Z,21.72
2018-07-04T07:15:58.282Z,21.81
2018-07-04T07:16:58.107Z,22.07
2018-07-04T07:17:58.093Z,22.34
2018-07-04T07:18:58.076Z,22.50
2018-07-04T07:19:58.075Z,22.52
2018-07-04T07:20:58.045Z,22.50
2018-07-04T07:21:58.054Z,22.28
2018-07-04T07:22:58.019Z,22.50
2018-07-04T07:23:58.013Z,23.45
2018-07-04T07:24:58.028Z,24.39
2018-07-04T07:25:58.005Z,24.91
2018-07-04T07:26:58.004Z,25.19
2018-07-04T07:27:58.018Z,26.02
2018-07-04T07:28:57.969Z,26.35
2018-07-04T07:29:58.006Z,25.22
2018-07-04T07:30:57.968Z,23.97
2018-07-04T07:31:57.965Z,23.47
2018-07-04T07:32:57.989Z,23.32
2018-07-04T07:33:57.975Z,23.02
2018-07-04T07:34:57.931Z,23.49
2018-07-04T07:35:57.950Z,23.75
2018-07-04T07:36:57.918Z,24.00
2018-07-04T07:37:57.994Z,24.37
2018-07-04T07:38:57.866Z,24.45
2018-07-04T07:39:57.922Z,24.79
2018-07-04T07:40:57.927Z,24.85
2018-07-04T07:41:57.933Z,24.77
2018-07-04T07:42:57.843Z,25.10
2018-07-04T07:43:57.890Z,24.88
2018-07-04T07:44:57.824Z,24.53
2018-07-04T07:45:57.818Z,24.41
2018-07-04T07:46:57.841Z,24.50
2018-07-04T07:47:57.806Z,24.61
2018-07-04T07:48:57.776Z,24.67
2018-07-04T07:49:57.788Z,24.69
2018-07-04T07:50:57.777Z,24.69
2018-07-04T07:51:57.763Z,24.34
2018-07-04T07:52:57.782Z,23.85
2018-07-04T07:53:57.794Z,23.60
2018-07-04T07:54:57.755Z,23.45
2018-07-04T07:55:57.731Z,23.57
2018-07-04T07:56:57.785Z,23.55
2018-07-04T07:57:57.731Z,23.76
2018-07-04T07:58:57.704Z,24.04
2018-07-04T07:59:57.717Z,24.38
2018-07-04T08:00:57.827Z,24.68
2018-07-04T08:01:57.822Z,24.92
2018-07-04T08:02:57.778Z,25.12
2018-07-04T08:03:57.745Z,25.20
2018-07-04T08:04:57.695Z,25.37
2018-07-04T08:05:57.856Z,25.35
2018-07-04T08:06:57.700Z,25.24
2018-07-04T08:07:57.730Z,25.31
2018-07-04T08:08:57.666Z,25.53
2018-07-04T08:09:57.629Z,25.49
2018-07-04T08:10:57.626Z,25.13
2018-07-04T08:11:57.640Z,24.90
2018-07-04T08:12:57.603Z,24.98
2018-07-04T08:13:57.597Z,24.53
2018-07-04T08:14:58.565Z,24.29
2018-07-04T08:15:57.653Z,24.42
2018-07-04T08:16:57.597Z,24.76
2018-07-04T08:17:57.578Z,25.10
2018-07-04T08:18:57.566Z,25.42
2018-07-04T08:19:57.577Z,25.46
2018-07-04T08:20:57.548Z,25.27
2018-07-04T08:21:57.561Z,25.15
2018-07-04T08:22:57.555Z,25.07
2018-07-04T08:23:57.522Z,25.35
2018-07-04T08:24:57.620Z,25.35
2018-07-04T08:25:57.528Z,25.34
2018-07-04T08:26:57.509Z,25.28
2018-07-04T08:27:57.550Z,25.38
2018-07-04T08:28:57.493Z,25.42
2018-07-04T08:29:57.512Z,25.47
2018-07-04T08:30:57.476Z,25.68
2018-07-04T08:31:57.552Z,25.82
2018-07-04T08:32:57.537Z,26.05
2018-07-04T08:33:57.511Z,26.20
2018-07-04T08:34:57.507Z,26.31
2018-07-04T08:35:57.471Z,26.35
2018-07-04T08:36:57.460Z,26.40
2018-07-04T08:37:57.627Z,26.31
2018-07-04T08:38:57.600Z,26.22
2018-07-04T08:39:57.455Z,26.32
2018-07-04T08:40:57.472Z,26.31
2018-07-04T08:41:57.475Z,26.11
2018-07-04T08:42:57.690Z,26.09
2018-07-04T08:43:57.468Z,25.93
2018-07-04T08:44:57.412Z,25.82
2018-07-04T08:45:57.419Z,25.69
2018-07-04T08:46:57.444Z,25.56
2018-07-04T08:47:57.421Z,25.37
2018-07-04T08:48:57.399Z,25.30
2018-07-04T08:49:57.365Z,25.35
2018-07-04T08:50:57.411Z,25.50
2018-07-04T08:51:57.407Z,25.56
2018-07-04T08:52:57.499Z,25.50
2018-07-04T08:53:57.372Z,25.39
2018-07-04T08:54:57.369Z,25.38
2018-07-04T08:55:57.321Z,25.49
2018-07-04T08:56:57.327Z,25.56
2018-07-04T08:57:57.360Z,25.37
2018-07-04T08:58:57.775Z,25.47
2018-07-04T08:59:57.357Z,25.38
2018-07-04T09:00:57.464Z,25.47
2018-07-04T09:01:57.372Z,25.49
2018-07-04T09:02:57.283Z,25.38
2018-07-04T09:03:57.287Z,25.28
2018-07-04T09:04:57.269Z,25.19
2018-07-04T09:05:57.278Z,25.00
2018-07-04T09:06:57.293Z,24.85
2018-07-04T09:07:57.268Z,24.85
2018-07-04T09:08:57.237Z,25.02
2018-07-04T09:09:57.233Z,25.20
2018-07-04T09:10:57.307Z,25.47
2018-07-04T09:11:57.242Z,25.65
2018-07-04T09:12:57.208Z,25.86
2018-07-04T09:13:57.204Z,25.94
2018-07-04T09:14:57.204Z,26.06
2018-07-04T09:15:57.187Z,26.15
2018-07-04T09:16:57.181Z,26.20
2018-07-04T09:17:57.183Z,26.28
2018-07-04T09:18:57.173Z,26.40
2018-07-04T09:19:57.153Z,26.54
2018-07-04T09:20:57.201Z,26.52
2018-07-04T09:21:57.152Z,26.40
2018-07-04T09:22:57.158Z,26.44
2018-07-04T09:23:57.171Z,26.58
2018-07-04T09:24:57.113Z,26.72
2018-07-04T09:25:57.112Z,26.61
2018-07-04T09:26:57.134Z,26.59
2018-07-04T09:27:57.095Z,26.65
2018-07-04T09:28:57.091Z,26.76
2018-07-04T09:29:57.081Z,26.74
2018-07-04T09:30:57.090Z,26.76
2018-07-04T09:31:57.077Z,27.01
2018-07-04T09:32:57.076Z,27.11
2018-07-04T09:33:57.039Z,27.16
2018-07-04T09:34:57.073Z,27.23
2018-07-04T09:35:57.030Z,27.32
2018-07-04T09:36:57.027Z,27.28
2018-07-04T09:37:57.095Z,27.23
2018-07-04T09:38:57.069Z,27.20
2018-07-04T09:39:57.012Z,27.14
2018-07-04T09:40:57.025Z,27.21
2018-07-04T09:41:57.010Z,27.24
2018-07-04T09:42:57.005Z,27.24
2018-07-04T09:43:57.053Z,27.19
2018-07-04T09:44:57.018Z,27.13
2018-07-04T09:45:56.974Z,27.04
2018-07-04T09:46:56.962Z,26.96
2018-07-04T09:47:56.970Z,26.84
2018-07-04T09:48:56.977Z,26.74
2018-07-04T09:49:56.997Z,26.69
2018-07-04T09:50:57.056Z,26.68
2018-07-04T09:51:56.911Z,26.80
2018-07-04T09:52:56.916Z,26.73
2018-07-04T09:53:56.937Z,26.58
2018-07-04T09:54:56.900Z,26.42
2018-07-04T09:55:56.899Z,26.40
2018-07-04T09:56:56.907Z,26.55
2018-07-04T09:57:57.038Z,26.65
2018-07-04T09:58:56.887Z,26.84
2018-07-04T09:59:56.898Z,26.86
2018-07-04T10:00:56.847Z,26.73
2018-07-04T10:01:56.899Z,26.84
2018-07-04T10:02:56.841Z,26.98
2018-07-04T10:03:56.836Z,26.89
2018-07-04T10:04:56.843Z,26.83
2018-07-04T10:05:56.834Z,26.65
2018-07-04T10:06:56.806Z,26.68
2018-07-04T10:07:56.815Z,26.62
2018-07-04T10:08:56.831Z,26.54
2018-07-04T10:09:56.800Z,26.59
2018-07-04T10:10:56.800Z,26.73
2018-07-04T10:11:56.802Z,26.94
2018-07-04T10:12:56.784Z,27.05
2018-07-04T10:13:56.804Z,27.32
2018-07-04T10:14:56.809Z,27.36
2018-07-04T10:15:56.750Z,27.64
2018-07-04T10:16:56.745Z,27.77
2018-07-04T10:17:56.787Z,27.86
2018-07-04T10:18:56.746Z,27.85
2018-07-04T10:19:56.717Z,27.70
2018-07-04T10:20:56.699Z,27.43
2018-07-04T10:21:56.705Z,27.48
2018-07-04T10:22:56.698Z,27.43
2018-07-04T10:23:56.688Z,27.32
2018-07-04T10:24:56.689Z,27.13
2018-07-04T10:25:56.681Z,27.16
2018-07-04T10:26:56.676Z,27.17
2018-07-04T10:27:56.662Z,27.31
2018-07-04T10:28:56.702Z,27.39
2018-07-04T10:29:56.646Z,27.48
2018-07-04T10:30:56.652Z,27.62
2018-07-04T10:31:56.650Z,27.53
2018-07-04T10:32:56.634Z,27.57
2018-07-04T10:33:56.694Z,27.54
2018-07-04T10:34:56.632Z,27.58
2018-07-04T10:35:56.644Z,27.62
2018-07-04T10:36:56.627Z,27.74
2018-07-04T10:37:56.605Z,27.73
2018-07-04T10:38:56.592Z,27.76
2018-07-04T10:39:56.581Z,27.71
2018-07-04T10:40:56.585Z,27.66
2018-07-04T10:41:56.569Z,27.79
2018-07-04T10:42:56.584Z,27.86
2018-07-04T10:43:56.558Z,27.88
2018-07-04T10:44:56.561Z,27.95
2018-07-04T10:45:56.537Z,27.99
2018-07-04T10:46:56.582Z,28.10
2018-07-04T10:47:56.540Z,28.22
2018-07-04T10:48:56.569Z,28.35
2018-07-04T10:49:56.514Z,28.46
2018-07-04T10:50:56.664Z,28.41
2018-07-04T10:51:56.489Z,28.21
2018-07-04T10:52:56.490Z,28.01
2018-07-04T10:53:56.605Z,27.99
2018-07-04T10:54:56.503Z,28.01
2018-07-04T10:55:56.491Z,27.86
2018-07-04T10:56:56.498Z,27.70
2018-07-04T10:57:56.474Z,27.74
2018-07-04T10:58:56.452Z,27.77
2018-07-04T10:59:56.457Z,28.03
2018-07-04T11:00:56.432Z,28.01
2018-07-04T11:01:56.493Z,28.11
2018-07-04T11:02:56.506Z,28.23
2018-07-04T11:03:56.413Z,28.35
2018-07-04T11:04:56.458Z,28.41
2018-07-04T11:05:56.438Z,28.38
2018-07-04T11:06:56.408Z,28.35
2018-07-04T11:07:56.389Z,28.36
2018-07-04T11:08:56.444Z,28.41
2018-07-04T11:09:56.430Z,28.56
2018-07-04T11:10:56.379Z,28.62
2018-07-04T11:11:56.399Z,28.73
2018-07-04T11:12:56.370Z,28.87
2018-07-04T11:13:56.400Z,28.73
2018-07-04T11:14:56.340Z,28.69
2018-07-04T11:15:56.340Z,28.66
2018-07-04T11:16:56.413Z,28.70
2018-07-04T11:17:56.323Z,28.78
2018-07-04T11:18:56.327Z,28.77
2018-07-04T11:19:56.346Z,28.56
2018-07-04T11:20:56.328Z,28.59
2018-07-04T11:21:56.302Z,28.77
2018-07-04T11:22:56.289Z,28.78
2018-07-04T11:23:56.290Z,28.77
2018-07-04T11:24:56.271Z,28.70
2018-07-04T11:25:56.295Z,28.69
2018-07-04T11:26:56.275Z,28.82
2018-07-04T11:27:56.277Z,28.91
2018-07-04T11:28:56.251Z,28.95
2018-07-04T11:29:56.252Z,28.91
2018-07-04T11:30:56.269Z,28.90
2018-07-04T11:31:56.248Z,28.87
2018-07-04T11:32:56.259Z,28.85
2018-07-04T11:33:56.258Z,28.82
2018-07-04T11:34:56.226Z,28.91
2018-07-04T11:35:56.240Z,29.10
2018-07-04T11:36:56.210Z,29.01
2018-07-04T11:37:56.200Z,29.01
2018-07-04T11:38:56.230Z,29.08
2018-07-04T11:39:56.189Z,29.25
2018-07-04T11:40:56.221Z,29.29
2018-07-04T11:41:56.176Z,29.40
2018-07-04T11:42:56.167Z,29.35
2018-07-04T11:43:56.216Z,29.40
2018-07-04T11:44:56.248Z,29.52
2018-07-04T11:45:56.254Z,29.40
2018-07-04T11:46:56.147Z,29.37
2018-07-04T11:47:56.217Z,29.33
2018-07-04T11:48:56.146Z,29.28
2018-07-04T11:49:56.143Z,29.31
2018-07-04T11:50:56.136Z,29.29
2018-07-04T11:51:56.136Z,29.47
2018-07-04T11:52:56.386Z,29.53
2018-07-04T11:53:56.169Z,29.53
2018-07-04T11:54:56.100Z,29.60
2018-07-04T11:55:56.102Z,29.63
2018-07-04T11:56:56.104Z,29.66
2018-07-04T11:57:56.083Z,29.77
2018-07-04T11:58:56.073Z,29.59
2018-07-04T11:59:56.058Z,29.63
2018-07-04T12:00:56.074Z,29.53
2018-07-04T12:01:56.079Z,29.50
2018-07-04T12:02:56.064Z,29.41
2018-07-04T12:03:56.045Z,29.56
2018-07-04T12:04:56.035Z,29.62
2018-07-04T12:05:56.030Z,29.72
2018-07-04T12:06:56.065Z,29.82
2018-07-04T12:07:56.014Z,29.89
2018-07-04T12:08:56.016Z,29.87
2018-07-04T12:09:55.993Z,30.02
2018-07-04T12:10:56.078Z,29.97
2018-07-04T12:11:55.986Z,30.09
2018-07-04T12:12:55.996Z,30.03
2018-07-04T12:13:55.987Z,30.00
2018-07-04T12:14:56.027Z,29.96
2018-07-04T12:15:55.997Z,30.02
2018-07-04T12:16:56.024Z,30.12
2018-07-04T12:17:55.966Z,30.21
2018-07-04T12:18:55.946Z,30.31
2018-07-04T12:19:55.948Z,30.53
2018-07-04T12:20:55.965Z,30.57
2018-07-04T12:21:55.953Z,30.54
2018-07-04T12:22:55.936Z,30.62
2018-07-04T12:23:55.929Z,30.64
2018-07-04T12:24:55.912Z,30.75
2018-07-04T12:25:55.940Z,30.69
2018-07-04T12:26:55.920Z,30.80
2018-07-04T12:27:55.902Z,30.71
2018-07-04T12:28:55.897Z,30.74
2018-07-04T12:29:55.892Z,30.68
2018-07-04T12:30:55.903Z,30.57
2018-07-04T12:31:55.925Z,30.59
2018-07-04T12:32:55.975Z,30.56
2018-07-04T12:33:55.907Z,30.52
2018-07-04T12:34:55.854Z,30.57
2018-07-04T12:35:55.903Z,30.56
2018-07-04T12:36:55.910Z,30.54
2018-07-04T12:37:55.846Z,30.62
2018-07-04T12:38:55.839Z,30.56
2018-07-04T12:39:55.877Z,30.47
2018-07-04T12:40:56.823Z,30.47
2018-07-04T12:41:56.811Z,30.36
2018-07-04T12:42:55.869Z,30.36
2018-07-04T12:43:55.825Z,30.36
2018-07-04T12:44:55.825Z,30.33
2018-07-04T12:45:55.825Z,30.30
2018-07-04T12:46:55.807Z,30.16
2018-07-04T12:47:56.018Z,30.08
2018-07-04T12:48:56.083Z,30.09
2018-07-04T12:49:55.835Z,30.08
2018-07-04T12:50:56.317Z,29.89
2018-07-04T12:51:57.940Z,29.72
2018-07-04T12:52:56.416Z,29.71